createdAt,value
2023-05-08T00:00:02.099Z,101825.78
2023-05-08T00:02:29.177Z,101826.69
2023-05-08T00:04:56.310Z,101834.66
2023-05-08T00:07:23.450Z,101833.75
2023-05-08T00:09:50.458Z,101831.84
2023-05-08T00:12:17.445Z,101822.94
2023-05-08T00:14:44.459Z,101827.34
2023-05-08T00:17:11.520Z,101828.22
2023-05-08T00:19:38.505Z,101822.00
2023-05-08T00:22:05.605Z,101826.50
2023-05-08T00:24:32.701Z,101826.53
2023-05-08T00:26:59.911Z,101831.81
2023-05-08T00:29:26.896Z,101834.53
2023-05-08T00:31:53.874Z,101820.34
2023-05-08T00:34:20.855Z,101825.66
2023-05-08T00:36:47.858Z,101827.47
2023-05-08T00:39:14.879Z,101835.47
2023-05-08T00:41:41.974Z,101836.34
2023-05-08T00:44:09.277Z,101837.22
2023-05-08T00:46:37.245Z,101828.56
2023-05-08T00:49:05.900Z,101825.00
2023-05-08T00:51:33.855Z,101826.81
2023-05-08T00:54:01.504Z,101821.50
2023-05-08T00:56:29.867Z,101825.06
2023-05-08T00:58:57.130Z,101829.50
2023-05-08T01:01:25.080Z,101826.84
2023-05-08T01:03:55.115Z,101822.47
2023-05-08T01:06:22.190Z,101823.34
2023-05-08T01:08:49.256Z,101815.41
2023-05-08T01:11:49.908Z,101815.38
2023-05-08T01:14:48.216Z,101824.25
2023-05-08T01:17:50.375Z,101825.16
2023-05-08T01:20:46.988Z,101819.81
2023-05-08T01:24:33.773Z,101815.38
2023-05-08T01:27:29.087Z,101813.63
2023-05-08T01:30:24.538Z,101813.63
2023-05-08T01:33:02.525Z,101818.97
2023-05-08T01:35:41.442Z,101818.09
2023-05-08T01:39:12.262Z,101821.63
2023-05-08T01:41:43.281Z,101815.47
2023-05-08T01:44:19.854Z,101819.00
2023-05-08T01:46:51.070Z,101822.56
2023-05-08T01:49:30.499Z,101826.09
2023-05-08T01:52:03.919Z,101817.25
2023-05-08T01:54:58.742Z,101819.00
2023-05-08T01:57:29.971Z,101814.59
2023-05-08T02:00:00.130Z,101815.47
2023-05-08T02:02:30.498Z,101823.44
2023-05-08T02:04:58.927Z,101819.91
2023-05-08T02:07:27.888Z,101826.09
2023-05-08T02:09:57.008Z,101822.59
2023-05-08T02:12:26.509Z,101827.03
2023-05-08T02:14:54.821Z,101833.22
2023-05-08T02:17:22.152Z,101832.34
2023-05-08T02:19:51.326Z,101835.88
2023-05-08T02:22:20.306Z,101840.31
2023-05-08T02:24:48.158Z,101842.97
2023-05-08T02:27:16.680Z,101846.53
2023-05-08T02:29:43.943Z,101845.63
2023-05-08T02:32:12.215Z,101838.56
2023-05-08T02:34:45.284Z,101838.56
2023-05-08T02:37:21.222Z,101839.44
2023-05-08T02:39:49.358Z,101835.88
2023-05-08T02:42:16.594Z,101836.78
2023-05-08T02:44:43.790Z,101841.22
2023-05-08T02:47:28.012Z,101835.00
2023-05-08T02:50:27.033Z,101843.84
2023-05-08T02:53:04.897Z,101845.63
2023-05-08T02:55:53.846Z,101846.53
2023-05-08T02:58:55.377Z,101841.22
2023-05-08T03:01:33.547Z,101836.81
2023-05-08T03:04:07.866Z,101835.94
2023-05-08T03:06:45.865Z,101836.81
2023-05-08T03:09:19.564Z,101836.84
2023-05-08T03:11:53.741Z,101831.56
2023-05-08T03:14:26.021Z,101836.88
2023-05-08T03:16:55.620Z,101836.84
2023-05-08T03:19:37.212Z,101839.53
2023-05-08T03:22:07.216Z,101834.22
2023-05-08T03:24:39.244Z,101835.09
2023-05-08T03:27:08.059Z,101835.09
2023-05-08T03:29:36.564Z,101829.78
2023-05-08T03:32:04.742Z,101828.03
2023-05-08T03:34:34.010Z,101828.91
2023-05-08T03:37:01.017Z,101828.91
2023-05-08T03:39:28.060Z,101823.63
2023-05-08T03:41:56.888Z,101823.66
2023-05-08T03:44:24.905Z,101823.63
2023-05-08T03:46:56.116Z,101822.75
2023-05-08T03:49:26.374Z,101825.44
2023-05-08T03:51:57.899Z,101824.59
2023-05-08T03:54:25.598Z,101820.13
2023-05-08T03:56:54.382Z,101822.81
2023-05-08T04:00:16.503Z,101825.50
2023-05-08T04:02:50.625Z,101824.63
2023-05-08T04:05:47.026Z,101821.97
2023-05-08T04:08:25.133Z,101823.75
2023-05-08T04:11:25.411Z,101826.38
2023-05-08T04:14:03.728Z,101832.56
2023-05-08T04:16:38.708Z,101836.13
2023-05-08T04:19:15.297Z,101834.34
2023-05-08T04:21:44.627Z,101833.47
2023-05-08T04:24:15.805Z,101838.78
2023-05-08T04:26:44.562Z,101833.47
2023-05-08T04:29:11.889Z,101836.97
2023-05-08T04:31:40.908Z,101836.97
2023-05-08T04:34:09.711Z,101841.31
2023-05-08T04:36:37.700Z,101844.84
2023-05-08T04:39:05.248Z,101848.38
2023-05-08T04:41:33.082Z,101846.56
2023-05-08T04:44:00.713Z,101854.47
2023-05-08T04:46:27.845Z,101851.84
2023-05-08T04:48:54.865Z,101857.09
2023-05-08T04:51:21.955Z,101864.16
2023-05-08T04:53:48.968Z,101860.56
2023-05-08T04:56:16.145Z,101859.66
2023-05-08T04:58:43.286Z,101864.03
2023-05-08T05:01:10.467Z,101871.06
2023-05-08T05:03:37.587Z,101861.31
2023-05-08T05:06:04.791Z,101865.69
2023-05-08T05:08:31.771Z,101874.47
2023-05-08T05:10:58.757Z,101879.78
2023-05-08T05:13:25.790Z,101870.84
2023-05-08T05:15:54.380Z,101889.47
2023-05-08T05:18:21.787Z,101882.34
2023-05-08T05:20:48.863Z,101890.31
2023-05-08T05:23:15.856Z,101887.63
2023-05-08T05:25:43.263Z,101896.44
2023-05-08T05:28:10.329Z,101899.09
2023-05-08T05:30:37.365Z,101895.56
2023-05-08T05:33:04.826Z,101894.63
2023-05-08T05:35:31.876Z,101899.88
2023-05-08T05:37:58.946Z,101903.38
2023-05-08T05:40:25.986Z,101900.66
2023-05-08T05:42:53.068Z,101897.97
2023-05-08T05:45:20.205Z,101905.81
2023-05-08T05:47:54.258Z,101905.75
2023-05-08T05:50:22.640Z,101904.78
2023-05-08T05:52:49.681Z,101905.63
2023-05-08T05:55:17.199Z,101908.31
2023-05-08T05:57:44.412Z,101910.88
2023-05-08T06:00:12.292Z,101912.56
2023-05-08T06:02:39.551Z,101909.81
2023-05-08T06:05:07.491Z,101916.91
2023-05-08T06:07:34.665Z,101919.47
2023-05-08T06:10:02.322Z,101915.78
2023-05-08T06:12:29.935Z,101912.16
2023-05-08T06:14:57.124Z,101917.38
2023-05-08T06:17:24.221Z,101908.41
2023-05-08T06:19:54.183Z,101911.94
2023-05-08T06:22:27.404Z,101912.72
2023-05-08T06:24:54.474Z,101906.44
2023-05-08T06:27:22.587Z,101899.16
2023-05-08T06:29:53.110Z,101902.59
2023-05-08T06:32:21.306Z,101907.88
2023-05-08T06:34:48.847Z,101908.75
2023-05-08T06:37:15.982Z,101916.66
2023-05-08T06:39:43.066Z,101916.59
2023-05-08T06:42:10.479Z,101911.16
2023-05-08T06:44:37.655Z,101916.38
2023-05-08T06:47:04.726Z,101914.47
2023-05-08T06:49:31.755Z,101920.53
2023-05-08T06:51:58.894Z,101919.63
2023-05-08T06:54:25.937Z,101921.34
2023-05-08T06:56:54.313Z,101923.09
2023-05-08T06:59:23.384Z,101929.28
2023-05-08T07:01:50.945Z,101932.84
2023-05-08T07:04:18.068Z,101925.66
2023-05-08T07:06:45.128Z,101929.09
2023-05-08T07:09:12.906Z,101929.91
2023-05-08T07:11:40.132Z,101935.28
2023-05-08T07:14:07.241Z,101941.63
2023-05-08T07:16:34.925Z,101939.97
2023-05-08T07:19:02.102Z,101939.09
2023-05-08T07:21:29.718Z,101940.91
2023-05-08T07:23:56.821Z,101939.13
2023-05-08T07:26:24.888Z,101932.84
2023-05-08T07:28:54.163Z,101939.00
2023-05-08T07:31:21.995Z,101931.84
2023-05-08T07:33:49.013Z,101929.03
2023-05-08T07:36:16.036Z,101933.34
2023-05-08T07:38:43.041Z,101929.78
2023-05-08T07:41:10.264Z,101928.72
2023-05-08T07:43:37.386Z,101933.78
2023-05-08T07:46:05.386Z,101920.09
2023-05-08T07:48:32.320Z,101923.25
2023-05-08T07:50:59.304Z,101924.69
2023-05-08T07:53:26.351Z,101920.72
2023-05-08T07:55:53.321Z,101921.22
2023-05-08T07:58:21.613Z,101929.56
2023-05-08T08:00:50.728Z,101936.19
2023-05-08T08:03:17.784Z,101931.47
2023-05-08T08:05:44.921Z,101933.81
2023-05-08T08:08:11.956Z,101930.13
2023-05-08T08:10:39.903Z,101937.19
2023-05-08T08:13:07.232Z,101930.16
2023-05-08T08:15:34.321Z,101931.78
2023-05-08T08:18:01.773Z,101934.25
2023-05-08T08:20:29.277Z,101933.97
2023-05-08T08:22:56.374Z,101937.19
2023-05-08T08:25:23.530Z,101932.38
2023-05-08T08:27:50.651Z,101927.56
2023-05-08T08:30:18.793Z,101920.84
2023-05-08T08:32:46.965Z,101933.81
2023-05-08T08:35:14.544Z,101917.34
2023-05-08T08:37:42.064Z,101928.63
2023-05-08T08:40:09.775Z,101923.66
2023-05-08T08:42:37.171Z,101923.88
2023-05-08T08:45:04.840Z,101926.47
2023-05-08T08:47:41.470Z,101923.78
2023-05-08T08:50:12.788Z,101929.31
2023-05-08T08:53:27.336Z,101922.63
2023-05-08T08:55:58.191Z,101922.28
2023-05-08T08:58:39.088Z,101922.16
2023-05-08T09:01:07.878Z,101919.72
2023-05-08T09:03:35.144Z,101921.25
2023-05-08T09:06:02.723Z,101925.19
2023-05-08T09:08:29.986Z,101925.31
2023-05-08T09:10:57.777Z,101926.47
2023-05-08T09:13:24.890Z,101928.69
2023-05-08T09:15:52.029Z,101925.28
2023-05-08T09:18:19.371Z,101931.47
2023-05-08T09:20:47.130Z,101931.69
2023-05-08T09:23:17.587Z,101929.09
2023-05-08T09:25:46.862Z,101925.81
2023-05-08T09:28:22.091Z,101928.44
2023-05-08T09:30:58.731Z,101928.56
2023-05-08T09:33:28.862Z,101926.16
2023-05-08T09:35:57.422Z,101927.22
2023-05-08T09:38:34.692Z,101933.69
2023-05-08T09:41:09.362Z,101932.72
2023-05-08T09:43:36.951Z,101931.34
2023-05-08T09:46:22.364Z,101928.63
2023-05-08T09:48:57.991Z,101930.38
2023-05-08T09:51:28.443Z,101933.91
2023-05-08T09:53:58.347Z,101932.72
2023-05-08T09:56:38.036Z,101928.75
2023-05-08T09:59:31.811Z,101925.97
2023-05-08T10:02:09.691Z,101927.59
2023-05-08T10:04:38.278Z,101935.41
2023-05-08T10:07:05.713Z,101931.41
2023-05-08T10:09:43.070Z,101929.78
2023-05-08T10:12:17.236Z,101939.16
2023-05-08T10:14:46.562Z,101939.03
2023-05-08T10:17:21.556Z,101934.19
2023-05-08T10:19:52.867Z,101934.69
2023-05-08T10:22:25.358Z,101938.34
2023-05-08T10:24:58.577Z,101946.13
2023-05-08T10:27:44.151Z,101938.88
2023-05-08T10:30:15.022Z,101939.06
2023-05-08T10:32:51.203Z,101935.03
2023-05-08T10:35:18.937Z,101939.16
2023-05-08T10:37:47.590Z,101938.22
2023-05-08T10:40:18.755Z,101933.22
2023-05-08T10:42:46.258Z,101935.03
2023-05-08T10:45:13.648Z,101938.75
2023-05-08T10:48:16.843Z,101933.31
2023-05-08T10:51:15.136Z,101937.41
2023-05-08T10:54:05.370Z,101930.06
2023-05-08T10:56:32.418Z,101931.25
2023-05-08T10:58:59.813Z,101923.25
2023-05-08T11:01:27.151Z,101924.75
2023-05-08T11:03:57.289Z,101932.06
2023-05-08T11:06:46.802Z,101931.22
2023-05-08T11:09:29.550Z,101936.47
2023-05-08T11:12:32.757Z,101935.00
2023-05-08T11:15:10.705Z,101935.66
2023-05-08T11:17:43.498Z,101929.47
2023-05-08T11:20:11.953Z,101918.16
2023-05-08T11:22:49.938Z,101919.63
2023-05-08T11:25:17.519Z,101921.56
2023-05-08T11:28:10.286Z,101914.38
2023-05-08T11:30:42.589Z,101913.84
2023-05-08T11:33:09.820Z,101910.06
2023-05-08T11:36:01.053Z,101912.34
2023-05-08T11:38:38.511Z,101905.84
2023-05-08T11:41:33.829Z,101911.06
2023-05-08T11:44:15.068Z,101908.94
2023-05-08T11:46:52.780Z,101902.38
2023-05-08T11:49:26.934Z,101905.28
2023-05-08T11:51:59.969Z,101903.72
2023-05-08T11:54:31.619Z,101897.59
2023-05-08T11:57:00.662Z,101896.38
2023-05-08T11:59:28.108Z,101890.03
2023-05-08T12:04:25.427Z,101893.31
2023-05-08T12:07:02.660Z,101894.53
2023-05-08T12:09:39.686Z,101886.22
2023-05-08T12:12:07.496Z,101885.69
2023-05-08T12:14:36.700Z,101882.81
2023-05-08T12:17:06.977Z,101887.59
2023-05-08T12:19:35.739Z,101886.38
2023-05-08T12:22:06.244Z,101885.22
2023-05-08T12:24:33.884Z,101885.69
2023-05-08T12:27:03.366Z,101881.91
2023-05-08T12:29:31.034Z,101883.53
2023-05-08T12:31:58.345Z,101878.09
2023-05-08T12:34:27.250Z,101883.63
2023-05-08T12:37:07.722Z,101882.63
2023-05-08T12:39:37.593Z,101875.56
2023-05-08T12:42:05.927Z,101880.34
2023-05-08T12:44:36.314Z,101880.84
2023-05-08T12:47:07.143Z,101874.53
2023-05-08T12:49:34.368Z,101865.59
2023-05-08T12:52:14.329Z,101852.66
2023-05-08T12:54:50.658Z,101850.88
2023-05-08T12:57:27.223Z,101855.41
2023-05-08T13:00:05.283Z,101843.53
2023-05-08T13:02:37.217Z,101842.41
2023-05-08T13:05:06.827Z,101840.53
2023-05-08T13:07:37.186Z,101850.19
2023-05-08T13:10:11.470Z,101843.94
2023-05-08T13:12:41.502Z,101847.03
2023-05-08T13:15:13.161Z,101838.94
2023-05-08T13:17:40.726Z,101846.06
2023-05-08T13:20:09.389Z,101839.44
2023-05-08T13:22:36.490Z,101844.69
2023-05-08T13:25:04.032Z,101842.81
2023-05-08T13:27:31.116Z,101844.59
2023-05-08T13:29:58.135Z,101834.06
2023-05-08T13:32:25.658Z,101834.06
2023-05-08T13:34:55.868Z,101825.75
2023-05-08T13:37:25.953Z,101829.00
2023-05-08T13:39:53.240Z,101823.34
2023-05-08T13:42:20.362Z,101825.75
2023-05-08T13:44:47.396Z,101809.69
2023-05-08T13:47:14.600Z,101811.88
2023-05-08T13:49:41.892Z,101825.78
2023-05-08T13:52:08.966Z,101817.81
2023-05-08T13:54:36.129Z,101810.78
2023-05-08T13:57:03.662Z,101815.59
2023-05-08T13:59:31.552Z,101810.13
2023-05-08T14:01:58.641Z,101816.94
2023-05-08T14:04:25.866Z,101822.16
2023-05-08T14:06:53.018Z,101817.72
2023-05-08T14:09:20.159Z,101816.75
2023-05-08T14:11:47.208Z,101806.31
2023-05-08T14:14:14.324Z,101805.19
2023-05-08T14:16:41.658Z,101805.31
2023-05-08T14:19:08.940Z,101799.75
2023-05-08T14:21:36.972Z,101801.59
2023-05-08T14:24:04.363Z,101801.06
2023-05-08T14:26:31.434Z,101793.91
2023-05-08T14:28:58.703Z,101792.09
2023-05-08T14:31:25.788Z,101790.50
2023-05-08T14:33:52.980Z,101789.38
2023-05-08T14:36:20.094Z,101788.50
2023-05-08T14:38:47.384Z,101793.25
2023-05-08T14:41:14.621Z,101788.47
2023-05-08T14:43:42.962Z,101792.59
2023-05-08T14:46:10.023Z,101790.41
2023-05-08T14:48:37.031Z,101792.59
2023-05-08T14:51:04.225Z,101789.00
2023-05-08T14:53:31.615Z,101791.34
2023-05-08T14:55:59.859Z,101787.94
2023-05-08T14:58:27.413Z,101793.69
2023-05-08T15:00:54.484Z,101788.72
2023-05-08T15:03:21.740Z,101785.53
2023-05-08T15:05:48.810Z,101791.03
2023-05-08T15:08:15.957Z,101791.94
2023-05-08T15:10:43.376Z,101791.81
2023-05-08T15:13:10.410Z,101788.13
2023-05-08T15:15:37.470Z,101785.44
2023-05-08T15:18:04.624Z,101777.88
2023-05-08T15:20:31.736Z,101780.31
2023-05-08T15:22:58.735Z,101779.88
2023-05-08T15:25:28.715Z,101771.25
2023-05-08T15:27:56.165Z,101781.81
2023-05-08T15:30:25.007Z,101786.19
2023-05-08T15:32:52.834Z,101779.19
2023-05-08T15:35:19.936Z,101776.19
2023-05-08T15:37:47.042Z,101773.81
2023-05-08T15:40:14.175Z,101783.03
2023-05-08T15:42:41.218Z,101773.66
2023-05-08T15:45:09.119Z,101774.75
2023-05-08T15:47:36.230Z,101775.50
2023-05-08T15:50:03.555Z,101783.81
2023-05-08T15:52:31.083Z,101778.34
2023-05-08T15:54:58.105Z,101779.22
2023-05-08T15:57:27.080Z,101775.78
2023-05-08T15:59:54.198Z,101776.59
2023-05-08T16:02:21.525Z,101778.34
2023-05-08T16:04:48.627Z,101788.59
2023-05-08T16:07:15.699Z,101783.66
2023-05-08T16:09:42.811Z,101777.53
2023-05-08T16:12:09.960Z,101782.56
2023-05-08T16:14:37.104Z,101781.19
2023-05-08T16:17:04.725Z,101774.41
2023-05-08T16:19:36.489Z,101772.03
2023-05-08T16:22:03.532Z,101770.84
2023-05-08T16:24:33.423Z,101766.00
2023-05-08T16:27:00.634Z,101769.28
2023-05-08T16:29:27.654Z,101771.13
2023-05-08T16:31:54.741Z,101771.63
2023-05-08T16:34:21.885Z,101769.75
2023-05-08T16:36:48.883Z,101763.56
2023-05-08T16:39:15.913Z,101761.81
2023-05-08T16:41:42.939Z,101751.91
2023-05-08T16:44:10.075Z,101753.28
2023-05-08T16:46:37.112Z,101759.53
2023-05-08T16:49:04.155Z,101760.44
2023-05-08T16:51:32.376Z,101760.06
2023-05-08T16:54:00.702Z,101756.94
2023-05-08T16:56:27.781Z,101758.75
2023-05-08T16:58:54.839Z,101758.16
2023-05-08T17:01:22.086Z,101757.50
2023-05-08T17:03:49.306Z,101758.31
2023-05-08T17:06:16.438Z,101756.59
2023-05-08T17:08:43.402Z,101746.69
2023-05-08T17:11:10.659Z,101746.19
2023-05-08T17:13:37.806Z,101753.59
2023-05-08T17:16:05.172Z,101745.06
2023-05-08T17:18:32.336Z,101742.63
2023-05-08T17:20:59.376Z,101745.09
2023-05-08T17:23:26.433Z,101737.25
2023-05-08T17:26:01.102Z,101740.59
2023-05-08T17:28:28.099Z,101737.13
2023-05-08T17:30:55.201Z,101731.50
2023-05-08T17:33:22.546Z,101736.31
2023-05-08T17:35:52.889Z,101735.53
2023-05-08T17:38:20.485Z,101734.59
2023-05-08T17:40:50.927Z,101738.22
2023-05-08T17:43:19.477Z,101741.00
2023-05-08T17:45:51.249Z,101747.41
2023-05-08T17:48:18.473Z,101751.91
2023-05-08T17:50:46.959Z,101751.91
2023-05-08T17:53:14.467Z,101748.34
2023-05-08T17:55:41.932Z,101750.66
2023-05-08T17:58:09.263Z,101748.72
2023-05-08T18:00:37.725Z,101752.72
2023-05-08T18:03:05.164Z,101758.38
2023-05-08T18:05:32.373Z,101748.06
2023-05-08T18:07:59.559Z,101747.63
2023-05-08T18:10:26.592Z,101743.47
2023-05-08T18:12:53.617Z,101752.94
2023-05-08T18:15:20.819Z,101745.41
2023-05-08T18:17:51.764Z,101748.47
2023-05-08T18:20:20.914Z,101747.97
2023-05-08T18:22:48.310Z,101738.50
2023-05-08T18:25:15.902Z,101732.59
2023-05-08T18:27:43.675Z,101723.94
2023-05-08T18:30:11.317Z,101715.38
2023-05-08T18:32:38.439Z,101712.94
2023-05-08T18:35:06.133Z,101706.28
2023-05-08T18:37:33.144Z,101721.78
2023-05-08T18:40:00.183Z,101715.00
2023-05-08T18:42:27.289Z,101734.16
2023-05-08T18:44:57.296Z,101729.09
2023-05-08T18:47:24.708Z,101728.47
2023-05-08T18:49:56.900Z,101723.38
2023-05-08T18:52:24.088Z,101723.63
2023-05-08T18:54:51.151Z,101717.63
2023-05-08T18:57:18.272Z,101721.34
2023-05-08T18:59:45.358Z,101723.31
2023-05-08T19:02:12.468Z,101716.47
2023-05-08T19:04:40.661Z,101716.75
2023-05-08T19:07:07.798Z,101717.00
2023-05-08T19:09:35.013Z,101719.03
2023-05-08T19:12:02.078Z,101717.44
2023-05-08T19:14:29.125Z,101715.84
2023-05-08T19:16:58.398Z,101724.91
2023-05-08T19:19:25.689Z,101723.31
2023-05-08T19:21:52.641Z,101720.88
2023-05-08T19:24:21.029Z,101721.88
2023-05-08T19:26:48.065Z,101719.41
2023-05-08T19:29:15.139Z,101727.66
2023-05-08T19:31:42.232Z,101719.88
2023-05-08T19:34:09.290Z,101721.03
2023-05-08T19:36:37.776Z,101722.88
2023-05-08T19:39:05.288Z,101724.84
2023-05-08T19:41:32.273Z,101725.00
2023-05-08T19:43:59.272Z,101726.97
2023-05-08T19:46:26.332Z,101726.25
2023-05-08T19:48:53.345Z,101727.25
2023-05-08T19:51:20.803Z,101726.44
2023-05-08T19:53:47.963Z,101727.50
2023-05-08T19:56:15.477Z,101726.75
2023-05-08T19:58:42.664Z,101722.47
2023-05-08T20:01:09.779Z,101723.50
2023-05-08T20:03:36.957Z,101720.94
2023-05-08T20:06:04.092Z,101724.69
2023-05-08T20:08:31.101Z,101734.59
2023-05-08T20:11:02.279Z,101740.09
2023-05-08T20:13:29.594Z,101748.25
2023-05-08T20:15:58.611Z,101749.22
2023-05-08T20:18:26.091Z,101752.94
2023-05-08T20:20:53.502Z,101754.78
2023-05-08T20:23:20.494Z,101754.94
2023-05-08T20:25:48.060Z,101754.97
2023-05-08T20:28:16.103Z,101764.84
2023-05-08T20:30:43.298Z,101767.59
2023-05-08T20:33:10.468Z,101761.47
2023-05-08T20:35:37.640Z,101754.47
2023-05-08T20:38:04.731Z,101759.84
2023-05-08T20:40:33.138Z,101758.97
2023-05-08T20:43:00.515Z,101764.34
2023-05-08T20:45:27.624Z,101762.63
2023-05-08T20:47:54.626Z,101765.41
2023-05-08T20:50:21.814Z,101766.31
2023-05-08T20:52:48.932Z,101772.56
2023-05-08T20:55:16.278Z,101774.34
2023-05-08T20:57:43.442Z,101771.72
2023-05-08T21:00:11.006Z,101774.31
2023-05-08T21:02:42.743Z,101763.53
2023-05-08T21:05:10.162Z,101766.19
2023-05-08T21:07:37.294Z,101760.78
2023-05-08T21:10:04.948Z,101757.22
2023-05-08T21:12:31.997Z,101753.63
2023-05-08T21:14:59.133Z,101755.41
2023-05-08T21:17:26.465Z,101750.94
2023-05-08T21:19:53.603Z,101735.00
2023-05-08T21:22:21.247Z,101742.97
2023-05-08T21:24:48.311Z,101742.97
2023-05-08T21:27:15.389Z,101742.06
2023-05-08T21:29:42.436Z,101732.38
2023-05-08T21:32:10.439Z,101735.16
2023-05-08T21:34:37.742Z,101741.47
2023-05-08T21:37:04.811Z,101737.13
2023-05-08T21:39:31.851Z,101730.94
2023-05-08T21:41:58.931Z,101733.72
2023-05-08T21:44:25.978Z,101733.72
2023-05-08T21:46:53.039Z,101728.47
2023-05-08T21:49:20.051Z,101718.78
2023-05-08T21:51:47.125Z,101719.69
2023-05-08T21:54:14.158Z,101710.03
2023-05-08T21:56:41.339Z,101718.06
2023-05-08T21:59:08.385Z,101709.25
2023-05-08T22:01:35.499Z,101705.72
2023-05-08T22:04:02.599Z,101702.19
2023-05-08T22:06:29.714Z,101692.44
2023-05-08T22:08:56.902Z,101694.28
2023-05-08T22:11:24.202Z,101685.47
2023-05-08T22:13:51.336Z,101687.25
2023-05-08T22:16:18.616Z,101691.72
2023-05-08T22:18:45.636Z,101692.63
2023-05-08T22:21:12.634Z,101689.09
2023-05-08T22:23:39.726Z,101684.69
2023-05-08T22:26:07.106Z,101679.34
2023-05-08T22:28:34.239Z,101673.19
2023-05-08T22:31:01.296Z,101672.34
2023-05-08T22:33:32.230Z,101682.97
2023-05-08T22:35:59.755Z,101674.13
2023-05-08T22:38:26.887Z,101681.22
2023-05-08T22:40:56.506Z,101675.97
2023-05-08T22:43:24.442Z,101667.97
2023-05-08T22:45:51.640Z,101663.56
2023-05-08T22:48:18.723Z,101662.75
2023-05-08T22:50:46.053Z,101659.19
2023-05-08T22:53:13.146Z,101661.88
2023-05-08T22:55:40.247Z,101659.22
2023-05-08T22:58:07.366Z,101657.53
2023-05-08T23:00:34.414Z,101649.53
2023-05-08T23:03:01.508Z,101649.59
2023-05-08T23:05:29.356Z,101650.47
2023-05-08T23:07:56.849Z,101643.47
2023-05-08T23:10:24.928Z,101646.16
2023-05-08T23:12:54.785Z,101632.88
2023-05-08T23:15:22.543Z,101633.78
2023-05-08T23:17:49.927Z,101631.97
2023-05-08T23:20:17.242Z,101624.00
2023-05-08T23:22:44.328Z,101615.13
2023-05-08T23:25:14.738Z,101606.28
2023-05-08T23:27:41.995Z,101601.00
2023-05-08T23:30:12.976Z,101596.63
2023-05-08T23:32:40.363Z,101594.94
2023-05-08T23:35:08.067Z,101591.41
2023-05-08T23:37:35.050Z,101597.63
2023-05-08T23:40:02.392Z,101593.25
2023-05-08T23:42:29.439Z,101592.41
2023-05-08T23:44:56.470Z,101591.50
2023-05-08T23:47:24.064Z,101588.88
2023-05-08T23:49:51.159Z,101586.25
2023-05-08T23:52:18.228Z,101587.09
2023-05-08T23:54:45.610Z,101591.56
2023-05-08T23:57:12.626Z,101582.69
2023-05-08T23:59:39.679Z,101588.03
